Weather History for KTYQ - December, 2012

Change the Weather History Date:

Monday, December 31, 2012

  Actual Average (KEYE) Record (KEYE)
Temperature  
Mean Temperature 30 °F 28 °F  
Max Temperature 34 °F 35 °F 61 °F (2010)
Min Temperature 26 °F 22 °F 6 °F (1998)
Degree Days  
Heating Degree Days 35 37  
Month to date heating degree days 1032  
Since 1 July heating degree days 2056  
Cooling Degree Days 0 0  
Month to date cooling degree days 0  
Year to date cooling degree days 1058  
Moisture  
Dew Point 25 °F    
Average Humidity 78    
Maximum Humidity 89    
Minimum Humidity 65    
Precipitation  
Precipitation 0.00 in 0.13 in 0.89 in (2006)
Month to date precipitation 3.08  
Year to date precipitation 40.79  
Sea Level Pressure  
Sea Level Pressure 30.12 in    
Wind  
Wind Speed 12 mph (SW)    
Max Wind Speed 18 mph    
Max Gust Speed 24 mph    
Visibility 8 miles    
Events Snow    
T = Trace of Precipitation, MM = Missing Value Source: NWS Daily Summary

Daily Weather History Graph

Daily Weather History Graph

Search for Another Location

Airport or City:

Trip Planner

Search our weather history database for the weather conditions in past years. The results will help you decide how hot, cold, wet, or windy it might be!

Date:

Astronomy

Dec. 31, 2012 Rise Set
Actual Time 8:06 AM EST 5:29 PM EST
Civil Twilight 7:36 AM EST 6:00 PM EST
Nautical Twilight 7:02 AM EST 6:34 PM EST
Astronomical Twilight 6:29 AM EST 7:07 PM EST
Moon 8:59 PM EST (12/31) 9:48 AM EST (12/31)
Length of Visible Light 10h 23m
Length of Day
9h 22m
Waning Gibbous, 90% of the Moon is Illuminated
Dec 31
Waning Gibbous
Jan 4
Last Quarter
Jan 11
New
Jan 18
First Quarter
Jan 26
Full

Hourly Weather History & Observations

Time (EST) Temp. Windchill Dew Point Humidity Pressure Visibility Wind Dir Wind Speed Gust Speed Precip Events Conditions
12:15 AM 26.6 °F 16.2 °F 20.3 °F 77% 30.25 in 10.0 mi SSW 11.5 mph - N/A   Clear
12:35 AM 27.5 °F 17.4 °F 21.0 °F 77% 30.23 in 10.0 mi SSW 11.5 mph - N/A   Clear
12:55 AM 27.5 °F 15.9 °F 21.0 °F 77% 30.22 in 10.0 mi SSW 15.0 mph 18.4 mph N/A   Clear
1:15 AM 28.0 °F 18.1 °F 21.2 °F 76% 30.21 in 10.0 mi SSW 11.5 mph - N/A   Clear
1:35 AM 28.4 °F 17.0 °F 21.4 °F 75% 30.21 in 10.0 mi SSW 15.0 mph - N/A   Clear
1:55 AM 29.1 °F 17.9 °F 21.7 °F 74% 30.19 in 10.0 mi SSW 15.0 mph 23.0 mph N/A   Clear
2:15 AM 29.3 °F 18.2 °F 21.7 °F 73% 30.19 in 10.0 mi SSW 15.0 mph 18.4 mph N/A   Clear
2:55 AM 29.5 °F 18.4 °F 21.7 °F 73% 30.18 in 10.0 mi SSW 15.0 mph 24.2 mph N/A   Clear
3:15 AM 29.3 °F 17.3 °F 21.7 °F 73% 30.20 in 10.0 mi SSW 17.3 mph - N/A   Clear
3:35 AM 29.3 °F 17.7 °F 21.7 °F 73% 30.19 in 10.0 mi SSW 16.1 mph 21.9 mph N/A   Clear
3:55 AM 29.3 °F 17.7 °F 21.7 °F 73% 30.19 in 10.0 mi SSW 16.1 mph - N/A   Clear
4:15 AM 29.1 °F 18.4 °F 21.7 °F 74% 30.18 in 10.0 mi SSW 13.8 mph 20.7 mph N/A   Clear
4:35 AM 29.1 °F 18.4 °F 21.9 °F 74% 30.17 in 10.0 mi SSW 13.8 mph - N/A   Clear
4:55 AM 29.3 °F 18.2 °F 21.9 °F 74% 30.17 in 10.0 mi SSW 15.0 mph - N/A   Clear
5:15 AM 29.8 °F 18.4 °F 21.7 °F 72% 30.14 in 10.0 mi SSW 16.1 mph - N/A   Clear
5:35 AM 30.2 °F 19.3 °F 21.6 °F 70% 30.15 in 10.0 mi SSW 15.0 mph 18.4 mph N/A   Clear
5:55 AM 30.6 °F 19.8 °F 21.4 °F 69% 30.15 in 10.0 mi SW 15.0 mph - N/A   Clear
6:15 AM 30.4 °F 20.5 °F 21.4 °F 69% 30.15 in 10.0 mi SSW 12.7 mph 18.4 mph N/A   Clear
6:35 AM 30.2 °F 20.8 °F 21.4 °F 70% 30.16 in 10.0 mi SW 11.5 mph - N/A   Clear
6:55 AM 31.1 °F 22.4 °F 21.2 °F 67% 30.15 in 10.0 mi SSW 10.4 mph - N/A   Clear
7:15 AM 31.8 °F 20.2 °F 21.2 °F 65% 30.15 in 10.0 mi SW 18.4 mph - N/A   Clear
7:55 AM 32.0 °F 21.6 °F 21.4 °F 65% 30.14 in 10.0 mi SSW 15.0 mph - N/A   Clear
8:35 AM 32.0 °F 20.8 °F 21.7 °F 66% 30.13 in 10.0 mi SW 17.3 mph 20.7 mph N/A   Clear
8:55 AM 32.0 °F 22.5 °F 22.1 °F 67% 30.13 in 10.0 mi SW 12.7 mph - N/A   Scattered Clouds
9:15 AM 32.0 °F 21.2 °F 22.1 °F 67% 30.13 in 10.0 mi SW 16.1 mph 20.7 mph N/A   Overcast
9:35 AM 32.0 °F 21.6 °F 22.5 °F 68% 30.14 in 10.0 mi SW 15.0 mph - N/A   Overcast
9:55 AM 32.2 °F 22.3 °F 22.5 °F 67% 30.13 in 10.0 mi SW 13.8 mph - N/A   Overcast
10:15 AM 32.4 °F 21.7 °F 22.8 °F 68% 30.14 in 10.0 mi SW 16.1 mph - N/A   Overcast
10:35 AM 32.9 °F 22.8 °F 23.2 °F 67% 30.15 in 10.0 mi SW 15.0 mph - N/A   Overcast
10:55 AM 33.1 °F 23.4 °F 23.4 °F 67% 30.14 in 10.0 mi SW 13.8 mph - N/A   Overcast
11:15 AM 33.3 °F 24.1 °F 23.2 °F 67% 30.14 in 10.0 mi SW 12.7 mph - N/A   Overcast
11:35 AM 33.4 °F 23.9 °F 23.5 °F 67% 30.14 in 10.0 mi SW 13.8 mph 20.7 mph N/A   Overcast
11:55 AM 33.4 °F 24.3 °F 23.7 °F 68% 30.12 in 10.0 mi SW 12.7 mph - N/A   Overcast
12:15 PM 34.0 °F 25.5 °F 23.7 °F 66% 30.11 in 10.0 mi SW 11.5 mph - N/A   Overcast
12:35 PM 34.2 °F 24.4 °F 23.7 °F 66% 30.10 in 10.0 mi SW 15.0 mph 18.4 mph N/A   Overcast
12:55 PM 34.2 °F 24.8 °F 24.3 °F 67% 30.09 in 10.0 mi SW 13.8 mph 19.6 mph N/A   Overcast
1:15 PM 34.3 °F 24.6 °F 24.3 °F 67% 30.09 in 10.0 mi SW 15.0 mph - N/A   Overcast
1:55 PM 32.0 °F 22.5 °F 28.0 °F 85% 30.09 in 0.8 mi WSW 12.7 mph - N/A Snow Light Snow
2:15 PM 32.0 °F 23.6 °F 28.4 °F 87% 30.09 in 0.8 mi WSW 10.4 mph - N/A Snow Light Snow
2:35 PM 32.0 °F 23.6 °F 28.6 °F 87% 30.09 in 1.2 mi WSW 10.4 mph 16.1 mph N/A Snow Light Snow
2:55 PM 32.0 °F 24.2 °F 28.4 °F 87% 30.08 in 1.5 mi WSW 9.2 mph 17.3 mph N/A Snow Light Snow
3:15 PM 32.0 °F 24.2 °F 28.4 °F 87% 30.08 in 1.5 mi SW 9.2 mph - N/A Snow Light Snow
3:35 PM 32.0 °F 24.8 °F 28.4 °F 87% 30.07 in 1.8 mi SW 8.1 mph - N/A Snow Light Snow
3:55 PM 32.0 °F 24.8 °F 28.4 °F 87% 30.07 in 2.5 mi SSW 8.1 mph - N/A Snow Light Snow
4:15 PM 32.0 °F 24.2 °F 28.4 °F 87% 30.08 in 3.0 mi SSW 9.2 mph - N/A Snow Light Snow
4:35 PM 32.0 °F 24.2 °F 28.4 °F 87% 30.08 in 1.8 mi SW 9.2 mph - N/A Snow Light Snow
4:55 PM 32.0 °F 24.2 °F 28.9 °F 88% 30.06 in 2.5 mi SW 9.2 mph - N/A Snow Light Snow
5:15 PM 32.0 °F 24.8 °F 28.9 °F 88% 30.07 in 5.0 mi SW 8.1 mph - N/A   Overcast
5:35 PM 32.0 °F 24.2 °F 28.9 °F 88% 30.06 in 5.0 mi SSW 9.2 mph - N/A   Overcast
5:55 PM 32.0 °F 24.8 °F 28.9 °F 88% 30.05 in 7.0 mi SSW 8.1 mph - N/A   Overcast
6:15 PM 32.2 °F 24.4 °F 29.1 °F 88% 30.06 in 7.0 mi SW 9.2 mph - N/A   Overcast
6:35 PM 32.2 °F 24.4 °F 28.9 °F 88% 30.07 in 7.0 mi SW 9.2 mph - N/A   Overcast
6:55 PM 32.2 °F 25.8 °F 28.8 °F 87% 30.06 in 7.0 mi WSW 6.9 mph - N/A   Overcast
7:15 PM 32.2 °F 24.4 °F 28.8 °F 87% 30.07 in 7.0 mi WSW 9.2 mph - N/A   Overcast
7:35 PM 32.0 °F 24.8 °F 28.9 °F 88% 30.07 in 7.0 mi WSW 8.1 mph - N/A   Overcast
7:55 PM 32.0 °F 25.6 °F 29.1 °F 89% 30.07 in 7.0 mi WSW 6.9 mph - N/A   Overcast
8:15 PM 32.0 °F 24.8 °F 28.9 °F 88% 30.06 in 7.0 mi SW 8.1 mph - N/A   Overcast
8:35 PM 32.0 °F 25.6 °F 28.9 °F 88% 30.05 in 7.0 mi SW 6.9 mph - N/A   Overcast
8:55 PM 32.0 °F 24.2 °F 28.9 °F 88% 30.06 in 7.0 mi WSW 9.2 mph - N/A   Overcast
9:15 PM 32.0 °F 26.4 °F 28.9 °F 88% 30.06 in 7.0 mi WSW 5.8 mph - N/A   Overcast
9:35 PM 32.0 °F 26.4 °F 28.9 °F 88% 30.06 in 7.0 mi WSW 5.8 mph - N/A   Overcast
9:55 PM 32.0 °F 24.8 °F 28.9 °F 88% 30.07 in 7.0 mi WSW 8.1 mph - N/A   Overcast
10:15 PM 32.0 °F 24.8 °F 28.9 °F 88% 30.06 in 7.0 mi West 8.1 mph - N/A   Overcast
10:35 PM 32.0 °F 25.6 °F 28.9 °F 88% 30.06 in 7.0 mi WSW 6.9 mph - N/A   Overcast
10:55 PM 32.0 °F 25.6 °F 28.9 °F 88% 30.06 in 7.0 mi WSW 6.9 mph - N/A   Overcast
11:15 PM 32.0 °F 25.6 °F 28.9 °F 88% 30.06 in 7.0 mi West 6.9 mph - N/A   Overcast
11:35 PM 32.0 °F 25.6 °F 28.9 °F 88% 30.07 in 4.0 mi West 6.9 mph - N/A Snow Light Snow
11:55 PM 32.0 °F 26.4 °F 28.9 °F 88% 30.06 in 5.0 mi West 5.8 mph - N/A   Overcast